sensor_id;sensor_type;location;lat;lon;timestamp;temperature;humidity
24460;DHT22;12630;50.860;5.714;2022-10-03T00:00:11;9.30;99.90
24460;DHT22;12630;50.860;5.714;2022-10-03T00:05:50;9.00;99.90
24460;DHT22;12630;50.860;5.714;2022-10-03T00:11:20;9.60;99.90
24460;DHT22;12630;50.860;5.714;2022-10-03T00:13:54;9.70;99.90
24460;DHT22;12630;50.860;5.714;2022-10-03T00:16:27;9.50;99.90
24460;DHT22;12630;50.860;5.714;2022-10-03T00:19:05;9.50;99.90
24460;DHT22;12630;50.860;5.714;2022-10-03T00:21:46;9.60;99.90
24460;DHT22;12630;50.860;5.714;2022-10-03T00:24:26;9.70;99.90
24460;DHT22;12630;50.860;5.714;2022-10-03T00:27:05;9.60;99.90
24460;DHT22;12630;50.860;5.714;2022-10-03T00:29:47;9.80;99.90
24460;DHT22;12630;50.860;5.714;2022-10-03T00:32:26;9.70;99.90
24460;DHT22;12630;50.860;5.714;2022-10-03T00:35:14;9.70;99.90
24460;DHT22;12630;50.860;5.714;2022-10-03T00:38:00;9.70;99.90
24460;DHT22;12630;50.860;5.714;2022-10-03T00:40:59;9.70;99.90
24460;DHT22;12630;50.860;5.714;2022-10-03T00:44:12;9.70;99.90
24460;DHT22;12630;50.860;5.714;2022-10-03T00:47:01;9.70;99.90
24460;DHT22;12630;50.860;5.714;2022-10-03T00:49:57;9.70;99.90
24460;DHT22;12630;50.860;5.714;2022-10-03T00:52:46;9.70;99.90
24460;DHT22;12630;50.860;5.714;2022-10-03T00:55:23;9.60;99.90
24460;DHT22;12630;50.860;5.714;2022-10-03T00:58:09;9.60;99.90
24460;DHT22;12630;50.860;5.714;2022-10-03T01:00:47;9.60;99.90
24460;DHT22;12630;50.860;5.714;2022-10-03T01:03:25;9.50;99.90
24460;DHT22;12630;50.860;5.714;2022-10-03T01:06:11;9.50;99.90
24460;DHT22;12630;50.860;5.714;2022-10-03T01:09:11;9.50;99.90
24460;DHT22;12630;50.860;5.714;2022-10-03T01:11:52;9.50;99.90
24460;DHT22;12630;50.860;5.714;2022-10-03T01:14:46;9.50;99.90
24460;DHT22;12630;50.860;5.714;2022-10-03T01:17:21;9.50;99.90
24460;DHT22;12630;50.860;5.714;2022-10-03T01:20:05;9.40;99.90
24460;DHT22;12630;50.860;5.714;2022-10-03T01:22:55;9.40;99.90
24460;DHT22;12630;50.860;5.714;2022-10-03T01:25:29;9.30;99.90
24460;DHT22;12630;50.860;5.714;2022-10-03T01:28:17;9.40;99.90
24460;DHT22;12630;50.860;5.714;2022-10-03T01:31:06;9.30;99.90
24460;DHT22;12630;50.860;5.714;2022-10-03T01:33:38;9.30;99.90
24460;DHT22;12630;50.860;5.714;2022-10-03T01:36:11;9.20;99.90
24460;DHT22;12630;50.860;5.714;2022-10-03T01:38:46;9.30;99.90
24460;DHT22;12630;50.860;5.714;2022-10-03T01:41:24;9.30;99.90
24460;DHT22;12630;50.860;5.714;2022-10-03T01:43:58;9.30;99.90
24460;DHT22;12630;50.860;5.714;2022-10-03T01:46:36;9.30;99.90
24460;DHT22;12630;50.860;5.714;2022-10-03T01:49:10;9.30;99.90
24460;DHT22;12630;50.860;5.714;2022-10-03T01:51:46;9.30;99.90
24460;DHT22;12630;50.860;5.714;2022-10-03T01:54:24;9.30;99.90
24460;DHT22;12630;50.860;5.714;2022-10-03T01:56:59;9.30;99.90
24460;DHT22;12630;50.860;5.714;2022-10-03T01:59:35;9.20;99.90
24460;DHT22;12630;50.860;5.714;2022-10-03T02:02:11;9.20;99.90
24460;DHT22;12630;50.860;5.714;2022-10-03T02:04:46;9.30;99.90
24460;DHT22;12630;50.860;5.714;2022-10-03T02:07:22;9.20;99.90
24460;DHT22;12630;50.860;5.714;2022-10-03T02:09:59;9.20;99.90
24460;DHT22;12630;50.860;5.714;2022-10-03T02:12:31;9.20;99.90
24460;DHT22;12630;50.860;5.714;2022-10-03T02:15:11;9.20;99.90
24460;DHT22;12630;50.860;5.714;2022-10-03T02:17:47;9.10;99.90
24460;DHT22;12630;50.860;5.714;2022-10-03T02:20:30;9.10;99.90
24460;DHT22;12630;50.860;5.714;2022-10-03T02:22:59;9.10;99.90
24460;DHT22;12630;50.860;5.714;2022-10-03T02:25:40;9.10;99.90
24460;DHT22;12630;50.860;5.714;2022-10-03T02:28:48;9.00;99.90
24460;DHT22;12630;50.860;5.714;2022-10-03T02:34:39;9.10;99.90
24460;DHT22;12630;50.860;5.714;2022-10-03T02:37:29;9.00;99.90
24460;DHT22;12630;50.860;5.714;2022-10-03T02:46:09;9.00;99.90
24460;DHT22;12630;50.860;5.714;2022-10-03T02:49:01;9.00;99.90
24460;DHT22;12630;50.860;5.714;2022-10-03T02:51:40;9.00;99.90
24460;DHT22;12630;50.860;5.714;2022-10-03T02:54:52;9.00;99.90
24460;DHT22;12630;50.860;5.714;2022-10-03T02:58:12;9.00;99.90
24460;DHT22;12630;50.860;5.714;2022-10-03T03:03:57;9.00;99.90
24460;DHT22;12630;50.860;5.714;2022-10-03T03:06:42;9.10;99.90
24460;DHT22;12630;50.860;5.714;2022-10-03T03:09:27;9.10;99.90
24460;DHT22;12630;50.860;5.714;2022-10-03T03:12:22;9.10;99.90
24460;DHT22;12630;50.860;5.714;2022-10-03T03:18:03;9.10;99.90
24460;DHT22;12630;50.860;5.714;2022-10-03T03:20:42;9.00;99.90
24460;DHT22;12630;50.860;5.714;2022-10-03T03:23:37;9.00;99.90
24460;DHT22;12630;50.860;5.714;2022-10-03T03:29:21;9.00;99.90
24460;DHT22;12630;50.860;5.714;2022-10-03T03:31:56;8.90;99.90
24460;DHT22;12630;50.860;5.714;2022-10-03T03:34:30;8.90;99.90
24460;DHT22;12630;50.860;5.714;2022-10-03T03:37:03;8.90;99.90
24460;DHT22;12630;50.860;5.714;2022-10-03T03:39:46;8.90;99.90
24460;DHT22;12630;50.860;5.714;2022-10-03T03:42:36;8.80;99.90
24460;DHT22;12630;50.860;5.714;2022-10-03T03:45:19;8.70;99.90
24460;DHT22;12630;50.860;5.714;2022-10-03T03:48:02;8.70;99.90
24460;DHT22;12630;50.860;5.714;2022-10-03T03:50:39;8.70;99.90
24460;DHT22;12630;50.860;5.714;2022-10-03T03:53:36;8.60;99.90
24460;DHT22;12630;50.860;5.714;2022-10-03T03:56:17;8.50;99.90
24460;DHT22;12630;50.860;5.714;2022-10-03T03:58:59;8.50;99.90
24460;DHT22;12630;50.860;5.714;2022-10-03T04:01:51;8.50;99.90
24460;DHT22;12630;50.860;5.714;2022-10-03T04:04:38;8.50;99.90
24460;DHT22;12630;50.860;5.714;2022-10-03T04:07:17;8.50;99.90
24460;DHT22;12630;50.860;5.714;2022-10-03T04:12:51;8.40;99.90
24460;DHT22;12630;50.860;5.714;2022-10-03T04:15:42;8.40;99.90
24460;DHT22;12630;50.860;5.714;2022-10-03T04:18:25;8.40;99.90
24460;DHT22;12630;50.860;5.714;2022-10-03T04:21:38;8.40;99.90
24460;DHT22;12630;50.860;5.714;2022-10-03T04:24:23;8.40;99.90
24460;DHT22;12630;50.860;5.714;2022-10-03T04:27:07;8.40;99.90
24460;DHT22;12630;50.860;5.714;2022-10-03T04:29:46;8.30;99.90
24460;DHT22;12630;50.860;5.714;2022-10-03T04:38:37;8.40;99.90
24460;DHT22;12630;50.860;5.714;2022-10-03T04:41:17;8.40;99.90
24460;DHT22;12630;50.860;5.714;2022-10-03T04:43:53;8.40;99.90
24460;DHT22;12630;50.860;5.714;2022-10-03T04:46:29;8.50;99.90
24460;DHT22;12630;50.860;5.714;2022-10-03T04:49:10;8.50;99.90
24460;DHT22;12630;50.860;5.714;2022-10-03T04:51:47;8.50;99.90
24460;DHT22;12630;50.860;5.714;2022-10-03T04:54:29;8.50;99.90
24460;DHT22;12630;50.860;5.714;2022-10-03T04:57:09;8.50;99.90
24460;DHT22;12630;50.860;5.714;2022-10-03T04:59:48;8.50;99.90
24460;DHT22;12630;50.860;5.714;2022-10-03T05:05:26;8.60;99.90
24460;DHT22;12630;50.860;5.714;2022-10-03T05:08:05;8.60;99.90
24460;DHT22;12630;50.860;5.714;2022-10-03T05:10:53;8.50;99.90
24460;DHT22;12630;50.860;5.714;2022-10-03T05:13:31;8.50;99.90
24460;DHT22;12630;50.860;5.714;2022-10-03T05:16:08;8.50;99.90
24460;DHT22;12630;50.860;5.714;2022-10-03T05:18:48;8.50;99.90
24460;DHT22;12630;50.860;5.714;2022-10-03T05:21:26;8.50;99.90
24460;DHT22;12630;50.860;5.714;2022-10-03T05:23:57;8.60;99.90
24460;DHT22;12630;50.860;5.714;2022-10-03T05:26:39;8.60;99.90
24460;DHT22;12630;50.860;5.714;2022-10-03T05:29:15;8.60;99.90
24460;DHT22;12630;50.860;5.714;2022-10-03T05:31:52;8.60;99.90
24460;DHT22;12630;50.860;5.714;2022-10-03T05:34:48;8.60;99.90
24460;DHT22;12630;50.860;5.714;2022-10-03T05:37:39;8.60;99.90
24460;DHT22;12630;50.860;5.714;2022-10-03T05:40:15;8.70;99.90
24460;DHT22;12630;50.860;5.714;2022-10-03T05:43:00;8.70;99.90
24460;DHT22;12630;50.860;5.714;2022-10-03T05:45:32;8.70;99.90
24460;DHT22;12630;50.860;5.714;2022-10-03T05:48:13;8.80;99.90
24460;DHT22;12630;50.860;5.714;2022-10-03T05:51:09;8.80;99.90
24460;DHT22;12630;50.860;5.714;2022-10-03T05:57:06;8.90;99.90
24460;DHT22;12630;50.860;5.714;2022-10-03T06:02:58;9.00;99.90
24460;DHT22;12630;50.860;5.714;2022-10-03T06:05:30;9.00;99.90
24460;DHT22;12630;50.860;5.714;2022-10-03T06:08:26;9.00;99.90
24460;DHT22;12630;50.860;5.714;2022-10-03T06:11:17;9.00;99.90
24460;DHT22;12630;50.860;5.714;2022-10-03T06:14:29;9.00;99.90
24460;DHT22;12630;50.860;5.714;2022-10-03T06:17:15;9.10;99.90
24460;DHT22;12630;50.860;5.714;2022-10-03T06:19:49;9.10;99.90
24460;DHT22;12630;50.860;5.714;2022-10-03T06:41:06;9.20;99.90
24460;DHT22;12630;50.860;5.714;2022-10-03T06:44:00;9.30;99.90
24460;DHT22;12630;50.860;5.714;2022-10-03T06:46:53;9.40;99.90
24460;DHT22;12630;50.860;5.714;2022-10-03T06:49:49;9.40;99.90
24460;DHT22;12630;50.860;5.714;2022-10-03T06:55:49;9.40;99.90
24460;DHT22;12630;50.860;5.714;2022-10-03T06:58:45;9.50;99.90
